createdAt,value
2023-05-25T00:01:05.316Z,38.75
2023-05-25T00:03:36.206Z,31.75
2023-05-25T00:06:05.772Z,30.50
2023-05-25T00:08:34.382Z,32.50
2023-05-25T00:11:04.812Z,34.00
2023-05-25T00:13:33.550Z,34.25
2023-05-25T00:16:02.613Z,31.25
2023-05-25T00:18:31.261Z,31.00
2023-05-25T00:21:05.629Z,34.00
2023-05-25T00:23:34.587Z,33.50
2023-05-25T00:26:05.803Z,29.75
2023-05-25T00:28:34.510Z,41.25
2023-05-25T00:31:03.485Z,35.50
2023-05-25T00:33:32.171Z,37.50
2023-05-25T00:36:01.299Z,35.50
2023-05-25T00:38:30.175Z,32.00
2023-05-25T00:40:59.456Z,35.75
2023-05-25T00:43:29.486Z,35.25
2023-05-25T00:45:59.404Z,33.00
2023-05-25T00:48:28.318Z,34.50
2023-05-25T00:51:00.102Z,31.50
2023-05-25T00:53:29.025Z,33.00
2023-05-25T00:56:04.426Z,36.50
2023-05-25T00:58:37.461Z,28.50
2023-05-25T01:01:11.865Z,37.00
2023-05-25T01:03:46.853Z,35.75
2023-05-25T01:06:17.065Z,37.50
2023-05-25T01:08:51.893Z,37.50
2023-05-25T01:11:26.431Z,33.00
2023-05-25T01:13:57.969Z,31.60
2023-05-25T01:16:30.010Z,35.50
2023-05-25T01:18:58.970Z,31.25
2023-05-25T01:21:37.928Z,38.75
2023-05-25T01:24:17.553Z,40.50
2023-05-25T01:26:55.234Z,31.60
2023-05-25T01:29:27.353Z,37.40
2023-05-25T01:31:59.190Z,33.50
2023-05-25T01:34:29.777Z,34.00
2023-05-25T01:37:01.923Z,34.50
2023-05-25T01:39:31.096Z,32.50
2023-05-25T01:42:00.066Z,36.50
2023-05-25T01:44:29.842Z,32.40
2023-05-25T01:47:05.133Z,37.25
2023-05-25T01:49:43.633Z,33.25
2023-05-25T01:52:23.625Z,34.00
2023-05-25T01:54:56.417Z,26.50
2023-05-25T01:57:29.023Z,30.00
2023-05-25T02:00:00.400Z,34.00
2023-05-25T02:02:30.487Z,32.75
2023-05-25T02:04:59.922Z,32.20
2023-05-25T02:07:30.291Z,38.75
2023-05-25T02:09:59.014Z,30.50
2023-05-25T02:12:29.145Z,36.25
2023-05-25T02:14:57.811Z,30.60
2023-05-25T02:17:28.882Z,35.00
2023-05-25T02:19:57.796Z,34.50
2023-05-25T02:22:27.158Z,34.00
2023-05-25T02:24:57.116Z,33.75
2023-05-25T02:27:26.102Z,36.75
2023-05-25T02:29:54.862Z,37.50
2023-05-25T02:32:29.569Z,37.00
2023-05-25T02:34:58.347Z,35.75
2023-05-25T02:37:27.267Z,36.00
2023-05-25T02:39:58.110Z,33.50
2023-05-25T02:42:27.514Z,36.50
2023-05-25T02:44:56.147Z,36.50
2023-05-25T02:47:26.231Z,35.25
2023-05-25T02:49:55.111Z,38.50
2023-05-25T02:52:25.787Z,41.00
2023-05-25T02:54:54.551Z,36.00
2023-05-25T02:57:32.336Z,35.80
2023-05-25T03:00:02.238Z,36.75
2023-05-25T03:02:31.310Z,41.75
2023-05-25T03:05:03.128Z,34.00
2023-05-25T03:07:34.604Z,38.00
2023-05-25T03:10:03.410Z,42.00
2023-05-25T03:12:33.805Z,33.00
2023-05-25T03:15:02.591Z,36.00
2023-05-25T03:17:31.577Z,39.75
2023-05-25T03:20:00.535Z,39.00
2023-05-25T03:22:29.609Z,42.50
2023-05-25T03:24:59.756Z,24.00
2023-05-25T03:27:28.848Z,42.25
2023-05-25T03:29:58.888Z,44.50
2023-05-25T03:32:28.011Z,44.25
2023-05-25T03:34:56.802Z,42.75
2023-05-25T03:37:25.970Z,42.00
2023-05-25T03:39:54.755Z,49.25
2023-05-25T03:42:23.763Z,48.25
2023-05-25T03:44:52.497Z,47.50
2023-05-25T03:47:23.059Z,45.25
2023-05-25T03:49:51.700Z,52.25
2023-05-25T03:52:21.208Z,47.00
2023-05-25T03:54:50.369Z,44.75
2023-05-25T03:57:19.595Z,50.50
2023-05-25T03:59:48.488Z,48.00
2023-05-25T04:02:17.623Z,49.50
2023-05-25T04:04:51.824Z,48.25
2023-05-25T04:07:21.417Z,48.00
2023-05-25T04:09:50.101Z,45.25
2023-05-25T04:12:19.236Z,46.75
2023-05-25T04:14:47.891Z,49.25
2023-05-25T04:17:17.514Z,43.75
2023-05-25T04:19:47.581Z,42.25
2023-05-25T04:22:17.541Z,38.50
2023-05-25T04:24:46.357Z,45.00
2023-05-25T04:27:15.703Z,38.50
2023-05-25T04:29:44.505Z,37.75
2023-05-25T04:32:29.999Z,43.75
2023-05-25T04:35:20.935Z,44.00
2023-05-25T04:37:51.754Z,43.25
2023-05-25T04:40:21.905Z,36.75
2023-05-25T04:42:54.138Z,36.50
2023-05-25T04:45:24.052Z,41.75
2023-05-25T04:47:53.877Z,36.25
2023-05-25T04:50:24.874Z,28.60
2023-05-25T04:52:54.630Z,34.00
2023-05-25T04:55:23.505Z,33.00
2023-05-25T04:57:53.434Z,25.60
2023-05-25T05:00:22.858Z,31.00
2023-05-25T05:02:56.706Z,27.40
2023-05-25T05:05:26.943Z,30.80
2023-05-25T05:07:58.033Z,27.80
2023-05-25T05:10:27.779Z,27.40
2023-05-25T05:12:59.869Z,30.40
2023-05-25T05:15:29.113Z,28.40
2023-05-25T05:17:58.320Z,25.60
2023-05-25T05:20:28.612Z,29.80
2023-05-25T05:22:58.154Z,28.40
2023-05-25T05:25:27.005Z,29.40
2023-05-25T05:27:56.278Z,26.60
2023-05-25T05:30:28.070Z,23.20
2023-05-25T05:32:58.335Z,26.80
2023-05-25T05:35:32.911Z,19.20
2023-05-25T05:38:11.984Z,27.60
2023-05-25T05:40:40.630Z,30.20
2023-05-25T05:43:12.531Z,24.80
2023-05-25T05:45:41.370Z,26.20
2023-05-25T05:48:11.126Z,22.20
2023-05-25T05:50:42.475Z,25.20
2023-05-25T05:53:13.459Z,33.40
2023-05-25T05:55:43.000Z,24.40
2023-05-25T05:58:12.219Z,33.20
2023-05-25T06:00:41.087Z,27.80
2023-05-25T06:03:11.285Z,28.25
2023-05-25T06:05:41.490Z,26.40
2023-05-25T06:08:10.491Z,26.80
2023-05-25T06:10:39.269Z,25.20
2023-05-25T06:13:08.569Z,27.00
2023-05-25T06:15:37.263Z,26.60
2023-05-25T06:18:11.675Z,31.40
2023-05-25T06:20:42.187Z,30.00
2023-05-25T06:23:14.030Z,29.20
2023-05-25T06:25:43.240Z,30.00
2023-05-25T06:28:12.485Z,27.20
2023-05-25T06:30:41.140Z,25.80
2023-05-25T06:33:10.095Z,31.00
2023-05-25T06:35:38.875Z,23.60
2023-05-25T06:38:09.280Z,25.80
2023-05-25T06:40:38.188Z,30.20
2023-05-25T06:43:07.143Z,20.80
2023-05-25T06:45:54.862Z,22.80
2023-05-25T06:48:24.268Z,20.80
2023-05-25T06:50:54.021Z,27.40
2023-05-25T06:53:24.739Z,25.40
2023-05-25T06:55:53.718Z,23.80
2023-05-25T06:58:22.833Z,27.20
2023-05-25T07:00:51.622Z,21.20
2023-05-25T07:03:21.136Z,24.20
2023-05-25T07:05:49.849Z,23.80
2023-05-25T07:08:18.943Z,19.60
2023-05-25T07:10:50.396Z,25.00
2023-05-25T07:13:19.581Z,22.20
2023-05-25T07:15:48.516Z,25.60
2023-05-25T07:18:17.664Z,23.20
2023-05-25T07:20:46.551Z,20.60
2023-05-25T07:23:16.004Z,19.40
2023-05-25T07:25:45.003Z,24.40
2023-05-25T07:28:15.768Z,21.00
2023-05-25T07:30:44.500Z,24.00
2023-05-25T07:33:13.464Z,23.40
2023-05-25T07:35:42.208Z,26.20
2023-05-25T07:38:11.511Z,20.40
2023-05-25T07:40:40.184Z,18.40
2023-05-25T07:43:09.190Z,22.40
2023-05-25T07:45:39.764Z,23.60
2023-05-25T07:48:09.738Z,22.60
2023-05-25T07:50:38.679Z,24.00
2023-05-25T07:53:07.679Z,23.40
2023-05-25T07:55:36.416Z,25.20
2023-05-25T07:58:07.473Z,21.80
2023-05-25T08:00:36.304Z,28.60
2023-05-25T08:03:06.794Z,25.60
2023-05-25T08:05:35.494Z,32.50
2023-05-25T08:08:04.495Z,30.25
2023-05-25T08:10:33.121Z,27.80
2023-05-25T08:13:02.114Z,26.00
2023-05-25T08:15:31.494Z,29.00
2023-05-25T08:18:00.966Z,31.20
2023-05-25T08:20:31.467Z,31.20
2023-05-25T08:23:01.877Z,29.60
2023-05-25T08:25:30.549Z,22.40
2023-05-25T08:27:59.643Z,25.20
2023-05-25T08:30:28.356Z,28.20
2023-05-25T08:32:57.524Z,27.80
2023-05-25T08:35:26.165Z,26.60
2023-05-25T08:37:56.488Z,33.40
2023-05-25T08:40:29.833Z,28.00
2023-05-25T08:42:58.873Z,29.40
2023-05-25T08:48:02.982Z,28.00
2023-05-25T08:50:33.791Z,32.80
2023-05-25T08:53:07.754Z,26.20
2023-05-25T08:55:40.731Z,31.20
2023-05-25T08:58:18.173Z,33.25
2023-05-25T09:00:55.571Z,32.40
2023-05-25T09:03:25.617Z,32.50
2023-05-25T09:05:56.156Z,27.00
2023-05-25T09:08:27.339Z,28.80
2023-05-25T09:10:57.787Z,34.80
2023-05-25T09:13:27.506Z,33.50
2023-05-25T09:15:56.839Z,28.75
2023-05-25T09:18:26.061Z,32.75
2023-05-25T09:20:55.507Z,27.75
2023-05-25T09:23:26.348Z,26.40
2023-05-25T09:25:55.966Z,27.50
2023-05-25T09:28:27.433Z,24.40
2023-05-25T09:30:58.139Z,19.00
2023-05-25T09:33:27.649Z,20.40
2023-05-25T09:35:57.061Z,20.20
2023-05-25T09:38:28.077Z,18.00
2023-05-25T09:40:57.250Z,20.80
2023-05-25T09:43:39.609Z,18.80
2023-05-25T09:46:09.283Z,18.00
2023-05-25T09:48:39.228Z,17.40
2023-05-25T09:51:08.757Z,14.80
2023-05-25T09:53:39.056Z,18.80
2023-05-25T09:56:07.968Z,14.80
2023-05-25T09:58:37.383Z,17.00
2023-05-25T10:01:07.544Z,19.00
2023-05-25T10:03:36.763Z,19.20
2023-05-25T10:06:06.506Z,16.00
2023-05-25T10:08:35.630Z,15.60
2023-05-25T10:11:07.356Z,18.60
2023-05-25T10:13:38.067Z,16.80
2023-05-25T10:16:13.331Z,18.40
2023-05-25T10:18:48.670Z,18.40
2023-05-25T10:21:19.551Z,17.60
2023-05-25T10:23:52.133Z,12.20
2023-05-25T10:26:27.530Z,17.40
2023-05-25T10:29:01.438Z,21.80
2023-05-25T10:31:31.480Z,20.20
2023-05-25T10:34:01.064Z,17.40
2023-05-25T10:36:30.910Z,17.80
2023-05-25T10:39:00.393Z,18.40
2023-05-25T10:41:32.150Z,18.00
2023-05-25T10:44:01.654Z,14.80
2023-05-25T10:46:31.001Z,20.80
2023-05-25T10:49:02.574Z,16.80
2023-05-25T10:51:41.020Z,18.40
2023-05-25T10:54:14.400Z,14.60
2023-05-25T10:57:09.585Z,17.80
2023-05-25T10:59:45.297Z,18.40
2023-05-25T11:02:14.117Z,14.60
2023-05-25T11:04:45.275Z,14.00
2023-05-25T11:07:16.962Z,14.00
2023-05-25T11:09:58.644Z,16.00
2023-05-25T11:12:28.668Z,20.80
2023-05-25T11:15:16.640Z,19.80
2023-05-25T11:18:01.454Z,17.00
2023-05-25T11:20:31.289Z,17.80
2023-05-25T11:23:00.110Z,20.80
2023-05-25T11:25:40.278Z,15.20
2023-05-25T11:28:12.676Z,17.20
2023-05-25T11:30:43.112Z,25.20
2023-05-25T11:33:13.401Z,21.60
2023-05-25T11:35:45.528Z,17.60
2023-05-25T11:38:16.075Z,18.60
2023-05-25T11:40:45.150Z,21.80
2023-05-25T11:43:16.539Z,21.00
2023-05-25T11:45:45.752Z,26.60
2023-05-25T11:48:16.144Z,20.00
2023-05-25T11:50:45.497Z,23.00
2023-05-25T11:53:15.057Z,19.60
2023-05-25T11:55:53.668Z,21.40
2023-05-25T11:58:34.148Z,19.80
2023-05-25T12:01:15.057Z,19.80
2023-05-25T12:03:44.387Z,16.20
2023-05-25T12:06:28.233Z,16.00
2023-05-25T12:08:57.678Z,15.60
2023-05-25T12:11:31.208Z,16.40
2023-05-25T12:14:02.272Z,16.20
2023-05-25T12:16:32.220Z,16.20
2023-05-25T12:19:00.965Z,16.20
2023-05-25T12:21:30.582Z,14.00
2023-05-25T12:23:59.589Z,15.80
2023-05-25T12:26:29.544Z,14.60
2023-05-25T12:29:04.445Z,10.40
2023-05-25T12:31:34.585Z,9.60
2023-05-25T12:34:07.377Z,11.60
2023-05-25T12:36:40.837Z,14.20
2023-05-25T12:39:10.339Z,12.60
2023-05-25T12:41:47.261Z,14.60
2023-05-25T12:44:25.403Z,15.40
2023-05-25T12:46:55.554Z,17.40
2023-05-25T12:49:29.652Z,15.00
2023-05-25T12:52:00.369Z,15.40
2023-05-25T12:54:40.929Z,16.40
2023-05-25T12:57:11.401Z,18.00
2023-05-25T12:59:42.794Z,15.80
2023-05-25T13:02:12.961Z,17.60
2023-05-25T13:04:44.626Z,14.60
2023-05-25T13:07:13.807Z,18.40
2023-05-25T13:09:43.410Z,8.40
2023-05-25T13:12:12.960Z,5.40
2023-05-25T13:14:43.201Z,8.60
2023-05-25T13:17:12.101Z,11.40
2023-05-25T13:19:41.662Z,14.60
2023-05-25T13:22:10.911Z,15.00
2023-05-25T13:24:39.506Z,17.40
2023-05-25T13:27:08.414Z,17.20
2023-05-25T13:29:37.055Z,18.40
2023-05-25T13:32:08.032Z,15.00
2023-05-25T13:34:36.927Z,17.00
2023-05-25T13:37:06.286Z,20.00
2023-05-25T13:39:35.039Z,22.20
2023-05-25T13:42:04.119Z,22.80
2023-05-25T13:44:33.993Z,26.00
2023-05-25T13:47:03.204Z,21.80
2023-05-25T13:49:33.390Z,21.40
2023-05-25T13:52:02.422Z,24.40
2023-05-25T13:54:31.143Z,22.40
2023-05-25T13:57:00.005Z,24.00
2023-05-25T13:59:28.659Z,22.60
2023-05-25T14:01:57.685Z,22.00
2023-05-25T14:04:26.620Z,23.00
2023-05-25T14:06:57.165Z,19.60
2023-05-25T14:09:25.769Z,16.80
2023-05-25T14:11:55.036Z,24.80
2023-05-25T14:14:31.559Z,22.00
2023-05-25T14:17:02.115Z,19.40
2023-05-25T14:19:31.166Z,16.60
2023-05-25T14:22:12.504Z,20.00
2023-05-25T14:24:43.209Z,16.80
2023-05-25T14:27:12.233Z,18.60
2023-05-25T14:29:41.040Z,21.40
2023-05-25T14:32:09.991Z,16.60
2023-05-25T14:34:38.950Z,14.20
2023-05-25T14:37:09.568Z,15.00
2023-05-25T14:39:38.540Z,11.00
2023-05-25T14:42:07.790Z,12.00
2023-05-25T14:44:36.593Z,15.80
2023-05-25T14:47:26.000Z,16.20
2023-05-25T14:49:55.589Z,14.60
2023-05-25T14:52:26.035Z,16.00
2023-05-25T14:54:54.770Z,15.20
2023-05-25T14:57:23.709Z,13.00
2023-05-25T14:59:52.484Z,14.60
2023-05-25T15:02:21.577Z,13.20
2023-05-25T15:04:50.475Z,12.80
2023-05-25T15:07:19.391Z,13.40
2023-05-25T15:09:50.065Z,20.60
2023-05-25T15:12:19.278Z,16.40
2023-05-25T15:14:48.024Z,13.00
2023-05-25T15:17:17.072Z,14.40
2023-05-25T15:19:45.739Z,22.60
2023-05-25T15:22:14.891Z,17.60
2023-05-25T15:24:43.911Z,16.80
2023-05-25T15:27:15.011Z,14.20
2023-05-25T15:29:43.738Z,17.20
2023-05-25T15:32:14.034Z,16.60
2023-05-25T15:34:43.182Z,16.20
2023-05-25T15:37:13.250Z,13.20
2023-05-25T15:39:42.076Z,24.40
2023-05-25T15:42:11.034Z,17.00
2023-05-25T15:44:41.137Z,18.40
2023-05-25T15:47:10.410Z,12.20
2023-05-25T15:49:39.403Z,10.20
2023-05-25T15:52:08.390Z,12.40
2023-05-25T15:54:37.052Z,14.80
2023-05-25T15:57:06.697Z,14.00
2023-05-25T15:59:35.409Z,14.40
2023-05-25T16:02:06.128Z,12.40
2023-05-25T16:04:34.970Z,9.20
2023-05-25T16:07:03.965Z,8.80
2023-05-25T16:09:32.648Z,8.00
2023-05-25T16:12:01.916Z,8.80
2023-05-25T16:14:30.745Z,9.80
2023-05-25T16:17:00.038Z,11.20
2023-05-25T16:19:30.231Z,11.40
2023-05-25T16:21:59.295Z,13.00
2023-05-25T16:24:27.983Z,10.80
2023-05-25T16:26:57.798Z,11.20
2023-05-25T16:29:26.528Z,10.40
2023-05-25T16:31:55.990Z,15.40
2023-05-25T16:34:24.687Z,13.20
2023-05-25T16:36:55.072Z,9.20
2023-05-25T16:39:23.890Z,17.20
2023-05-25T16:41:52.874Z,16.80
2023-05-25T16:44:21.655Z,17.60
2023-05-25T16:46:50.597Z,20.80
2023-05-25T16:49:19.312Z,19.40
2023-05-25T16:51:48.309Z,18.40
2023-05-25T16:54:18.320Z,15.60
2023-05-25T16:56:47.685Z,14.40
2023-05-25T16:59:16.513Z,22.00
2023-05-25T17:01:45.922Z,20.40
2023-05-25T17:04:14.903Z,18.80
2023-05-25T17:06:44.111Z,18.20
2023-05-25T17:09:13.307Z,18.20
2023-05-25T17:11:43.861Z,16.20
2023-05-25T17:14:29.423Z,12.80
2023-05-25T17:17:15.886Z,16.00
2023-05-25T17:19:45.197Z,20.20
2023-05-25T17:22:14.003Z,18.20
2023-05-25T17:24:43.500Z,14.40
2023-05-25T17:27:14.103Z,15.20
2023-05-25T17:29:43.234Z,18.00
2023-05-25T17:32:12.183Z,16.60
2023-05-25T17:34:41.305Z,21.40
2023-05-25T17:37:10.320Z,18.60
2023-05-25T17:39:39.657Z,18.80
2023-05-25T17:42:08.618Z,21.20
2023-05-25T17:44:42.395Z,16.00
2023-05-25T17:47:11.532Z,16.20
2023-05-25T17:49:40.734Z,19.20
2023-05-25T17:52:11.106Z,18.40
2023-05-25T17:54:40.989Z,17.60
2023-05-25T17:57:09.794Z,17.40
2023-05-25T17:59:40.572Z,21.40
2023-05-25T18:02:11.014Z,23.60
2023-05-25T18:04:41.322Z,18.80
2023-05-25T18:07:10.935Z,20.60
2023-05-25T18:09:40.073Z,19.60
2023-05-25T18:12:09.490Z,21.80
2023-05-25T18:14:40.967Z,18.60
2023-05-25T18:17:11.123Z,20.00
2023-05-25T18:19:41.271Z,20.40
2023-05-25T18:22:10.247Z,23.60
2023-05-25T18:24:39.308Z,15.20
2023-05-25T18:27:08.309Z,18.60
2023-05-25T18:29:37.678Z,17.00
2023-05-25T18:32:08.257Z,21.40
2023-05-25T18:34:39.432Z,27.20
2023-05-25T18:37:09.002Z,23.00
2023-05-25T18:39:38.858Z,24.20
2023-05-25T18:42:08.646Z,24.20
2023-05-25T18:44:37.683Z,22.60
2023-05-25T18:47:08.790Z,23.20
2023-05-25T18:49:38.314Z,29.80
2023-05-25T18:52:08.375Z,21.20
2023-05-25T18:54:39.466Z,23.60
2023-05-25T18:57:09.247Z,23.60
2023-05-25T18:59:39.152Z,21.80
2023-05-25T19:02:09.969Z,26.60
2023-05-25T19:04:39.133Z,22.20
2023-05-25T19:07:07.854Z,24.20
2023-05-25T19:09:37.039Z,23.80
2023-05-25T19:12:07.457Z,27.60
2023-05-25T19:14:36.851Z,29.00
2023-05-25T19:17:05.828Z,28.40
2023-05-25T19:19:36.562Z,25.00
2023-05-25T19:22:07.044Z,25.80
2023-05-25T19:24:36.689Z,29.40
2023-05-25T19:27:05.909Z,29.80
2023-05-25T19:29:36.013Z,22.20
2023-05-25T19:32:07.268Z,27.60
2023-05-25T19:34:37.819Z,25.80
2023-05-25T19:37:11.493Z,30.80
2023-05-25T19:39:41.155Z,27.40
2023-05-25T19:42:10.069Z,29.60
2023-05-25T19:44:41.395Z,32.80
2023-05-25T19:47:10.327Z,27.60
2023-05-25T19:49:40.795Z,30.60
2023-05-25T19:52:10.274Z,30.40
2023-05-25T19:54:40.810Z,28.60
2023-05-25T19:57:09.656Z,28.40
2023-05-25T19:59:39.037Z,29.40
2023-05-25T20:02:08.285Z,28.60
2023-05-25T20:04:40.889Z,31.00
2023-05-25T20:07:12.039Z,32.60
2023-05-25T20:09:42.982Z,30.20
2023-05-25T20:12:12.669Z,32.00
2023-05-25T20:14:42.409Z,31.80
2023-05-25T20:17:11.109Z,30.40
2023-05-25T20:19:40.109Z,31.20
2023-05-25T20:22:09.554Z,29.80
2023-05-25T20:24:39.875Z,32.60
2023-05-25T20:27:08.691Z,32.60
2023-05-25T20:29:37.770Z,27.60
2023-05-25T20:32:07.380Z,31.20
2023-05-25T20:34:36.774Z,31.40
2023-05-25T20:37:06.075Z,29.40
2023-05-25T20:39:35.960Z,25.60
2023-05-25T20:42:07.080Z,33.00
2023-05-25T20:44:37.379Z,30.40
2023-05-25T20:47:06.464Z,27.60
2023-05-25T20:49:35.637Z,29.00
2023-05-25T20:52:04.907Z,29.80
2023-05-25T20:54:34.644Z,31.20
2023-05-25T20:57:04.349Z,27.60
2023-05-25T20:59:35.171Z,29.60
2023-05-25T21:02:06.205Z,26.00
2023-05-25T21:04:36.877Z,29.00
2023-05-25T21:07:07.020Z,28.00
2023-05-25T21:09:36.753Z,26.80
2023-05-25T21:12:06.294Z,28.60
2023-05-25T21:14:37.829Z,27.60
2023-05-25T21:17:07.065Z,22.20
2023-05-25T21:19:36.724Z,31.20
2023-05-25T21:22:06.630Z,70.33
2023-05-25T21:24:36.090Z,30.60
2023-05-25T21:27:05.535Z,69.25
2023-05-25T21:29:36.876Z,37.00
2023-05-25T21:32:06.432Z,30.00
2023-05-25T21:34:36.500Z,27.20
2023-05-25T21:37:05.772Z,23.40
2023-05-25T21:39:34.854Z,26.00
2023-05-25T21:42:04.066Z,29.00
2023-05-25T21:44:34.486Z,27.60
2023-05-25T21:47:07.806Z,27.20
2023-05-25T21:49:57.514Z,32.00
2023-05-25T21:52:28.631Z,54.00
2023-05-25T21:55:06.203Z,41.50
2023-05-25T21:57:36.501Z,28.00
2023-05-25T22:00:08.443Z,27.40
2023-05-25T22:02:45.113Z,28.20
2023-05-25T22:05:15.781Z,30.20
2023-05-25T22:07:45.127Z,27.60
2023-05-25T22:10:15.089Z,29.40
2023-05-25T22:12:44.763Z,31.40
2023-05-25T22:15:14.493Z,27.80
2023-05-25T22:17:45.488Z,28.20
2023-05-25T22:20:14.781Z,31.60
2023-05-25T22:22:44.784Z,26.20
2023-05-25T22:25:14.097Z,28.60
2023-05-25T22:27:43.591Z,27.40
2023-05-25T22:30:16.201Z,27.80
2023-05-25T22:32:46.830Z,27.20
2023-05-25T22:35:16.752Z,24.00
2023-05-25T22:37:45.665Z,26.80
2023-05-25T22:40:18.190Z,23.20
2023-05-25T22:43:13.640Z,28.80
2023-05-25T22:45:43.257Z,20.00
2023-05-25T22:48:14.068Z,22.20
2023-05-25T22:50:44.177Z,28.20
2023-05-25T22:53:13.493Z,25.60
2023-05-25T22:55:47.174Z,23.00
2023-05-25T22:58:16.570Z,27.60
2023-05-25T23:00:48.319Z,28.40
2023-05-25T23:03:39.798Z,26.80
2023-05-25T23:06:09.631Z,23.60
2023-05-25T23:08:41.007Z,25.20
2023-05-25T23:11:10.676Z,26.80
2023-05-25T23:13:41.746Z,26.00
2023-05-25T23:16:15.509Z,27.00
2023-05-25T23:18:45.988Z,27.60
2023-05-25T23:21:16.025Z,21.80
2023-05-25T23:23:45.143Z,28.80
2023-05-25T23:26:14.582Z,24.00
2023-05-25T23:28:43.947Z,24.80
2023-05-25T23:31:13.712Z,21.20
2023-05-25T23:33:42.608Z,29.20
2023-05-25T23:36:28.410Z,26.60
2023-05-25T23:38:58.168Z,27.40
2023-05-25T23:41:27.694Z,9.60
2023-05-25T23:43:56.968Z,23.80
2023-05-25T23:46:26.297Z,22.80
2023-05-25T23:48:55.699Z,23.60
2023-05-25T23:51:26.350Z,22.40
2023-05-25T23:53:55.736Z,24.80
2023-05-25T23:56:24.947Z,30.40
2023-05-25T23:58:56.981Z,30.80
